Velohotel Hirschen Ramsen
Wetterdaten: aktuell Sonntag, 17.11.2019 18:45
Datum Zeit Temp.Aussen FeuchtAussen Luftdruck Regen Wind Richtung Richtung Sonnenschein Solar Taupunkt Windchill Windben
17.11.2019 18:45 3.6 C 84 % 1005.2 hPa 0.0 l/m 3.6 km/h (1 Bft) W-SW 242 0 min 0 W/m 1.2 C 3.6 C 8.0 km/h (2 Bft)
17.11.2019 18:40 3.7 C 84 % 1005.0 hPa 0.0 l/m 3.4 km/h (1 Bft) W 281 0 min 0 W/m 1.3 C 3.7 C 11.3 km/h (2 Bft)
17.11.2019 18:35 3.8 C 84 % 1004.9 hPa 0.0 l/m 3.7 km/h (1 Bft) NW 304 0 min 0 W/m 1.4 C 3.8 C 9.7 km/h (2 Bft)
17.11.2019 18:30 3.9 C 84 % 1004.8 hPa 0.0 l/m 2.3 km/h (1 Bft) NW 310 0 min 0 W/m 1.4 C 3.9 C 4.8 km/h (1 Bft)
17.11.2019 18:25 4.0 C 84 % 1004.7 hPa 0.0 l/m 4.1 km/h (1 Bft) W-NW 292 0 min 0 W/m 1.5 C 4.0 C 11.3 km/h (2 Bft)
17.11.2019 18:20 4.1 C 84 % 1004.8 hPa 0.0 l/m 4.2 km/h (1 Bft) NW 315 0 min 0 W/m 1.6 C 4.1 C 9.7 km/h (2 Bft)
17.11.2019 18:15 4.1 C 84 % 1004.8 hPa 0.0 l/m 3.8 km/h (1 Bft) W-SW 258 0 min 0 W/m 1.6 C 4.1 C 9.7 km/h (2 Bft)
17.11.2019 18:10 4.2 C 85 % 1004.7 hPa 0.0 l/m 4.3 km/h (1 Bft) W 260 0 min 0 W/m 1.9 C 4.2 C 11.3 km/h (2 Bft)
17.11.2019 18:05 4.2 C 84 % 1004.5 hPa 0.0 l/m 8.1 km/h (2 Bft) W 259 0 min 0 W/m 1.7 C 2.2 C 14.5 km/h (3 Bft)
17.11.2019 18:00 4.2 C 84 % 1004.4 hPa 0.0 l/m 10.4 km/h (2 Bft) W 271 0 min 0 W/m 1.7 C 1.6 C 19.3 km/h (3 Bft)
17.11.2019 17:55 4.3 C 85 % 1004.6 hPa 0.0 l/m 11.5 km/h (2 Bft) W 260 0 min 0 W/m 2.0 C 1.5 C 22.5 km/h (4 Bft)
17.11.2019 17:50 4.4 C 84 % 1004.6 hPa 0.0 l/m 9.0 km/h (2 Bft) W-SW 256 0 min 0 W/m 1.9 C 2.2 C 16.1 km/h (3 Bft)
17.11.2019 17:45 4.5 C 84 % 1004.4 hPa 0.0 l/m 8.7 km/h (2 Bft) W 262 0 min 0 W/m 2.0 C 2.4 C 14.5 km/h (3 Bft)
17.11.2019 17:40 4.6 C 84 % 1004.3 hPa 0.0 l/m 6.6 km/h (2 Bft) W-SW 258 0 min 0 W/m 2.1 C 3.1 C 14.5 km/h (3 Bft)
17.11.2019 17:35 4.7 C 84 % 1004.2 hPa 0.0 l/m 7.4 km/h (2 Bft) W 264 0 min 0 W/m 2.2 C 2.9 C 16.1 km/h (3 Bft)
17.11.2019 17:30 4.7 C 84 % 1004.2 hPa 0.0 l/m 5.0 km/h (1 Bft) W-SW 258 0 min 0 W/m 2.2 C 3.7 C 14.5 km/h (3 Bft)
17.11.2019 17:25 4.8 C 84 % 1004.2 hPa 0.0 l/m 3.3 km/h (1 Bft) W-NW 289 0 min 0 W/m 2.3 C 4.8 C 9.7 km/h (2 Bft)
17.11.2019 17:20 4.9 C 84 % 1004.2 hPa 0.0 l/m 3.6 km/h (1 Bft) W 269 0 min 0 W/m 2.4 C 4.9 C 8.0 km/h (2 Bft)
17.11.2019 17:15 4.9 C 84 % 1004.0 hPa 0.0 l/m 2.9 km/h (1 Bft) W 268 0 min 0 W/m 2.4 C 4.9 C 9.7 km/h (2 Bft)
17.11.2019 17:10 5.0 C 84 % 1003.9 hPa 0.0 l/m 1.9 km/h (1 Bft) W 277 0 min 0 W/m 2.5 C 5.0 C 6.4 km/h (2 Bft)
17.11.2019 17:05 5.1 C 84 % 1003.8 hPa 0.0 l/m 2.5 km/h (1 Bft) W 263 0 min 0 W/m 2.6 C 5.1 C 6.4 km/h (2 Bft)
17.11.2019 17:00 5.1 C 84 % 1003.9 hPa 0.0 l/m 2.1 km/h (1 Bft) W-NW 288 0 min 0 W/m 2.6 C 5.1 C 6.4 km/h (2 Bft)
17.11.2019 16:55 5.1 C 84 % 1003.8 hPa 0.0 l/m 2.6 km/h (1 Bft) W 275 0 min 0 W/m 2.6 C 5.1 C 6.4 km/h (2 Bft)
17.11.2019 16:50 5.1 C 84 % 1003.8 hPa 0.0 l/m 1.8 km/h (1 Bft) W 275 0 min 0 W/m 2.6 C 5.1 C 4.8 km/h (1 Bft)
17.11.2019 16:45 5.1 C 84 % 1003.9 hPa 0.0 l/m 2.3 km/h (1 Bft) W 275 0 min 0 W/m 2.6 C 5.1 C 6.4 km/h (2 Bft)
17.11.2019 16:40 5.1 C 83 % 1004.0 hPa 0.0 l/m 2.3 km/h (1 Bft) W 272 0 min 0 W/m 2.5 C 5.1 C 6.4 km/h (2 Bft)
17.11.2019 16:35 5.1 C 83 % 1003.8 hPa 0.0 l/m 2.1 km/h (1 Bft) W-NW 284 0 min 0 W/m 2.5 C 5.1 C 4.8 km/h (1 Bft)
17.11.2019 16:30 5.1 C 83 % 1003.8 hPa 0.0 l/m 1.8 km/h (1 Bft) W-NW 284 0 min 0 W/m 2.5 C 5.1 C 6.4 km/h (2 Bft)
17.11.2019 16:25 5.1 C 83 % 1003.9 hPa 0.0 l/m 1.9 km/h (1 Bft) W-NW 287 0 min 0 W/m 2.5 C 5.1 C 4.8 km/h (1 Bft)
17.11.2019 16:20 5.1 C 83 % 1003.9 hPa 0.0 l/m 2.1 km/h (1 Bft) W-NW 287 0 min 0 W/m 2.5 C 5.1 C 4.8 km/h (1 Bft)
17.11.2019 16:15 5.1 C 83 % 1003.9 hPa 0.0 l/m 1.4 km/h (1 Bft) W-NW 288 0 min 0 W/m 2.5 C 5.1 C 6.4 km/h (2 Bft)
17.11.2019 16:10 5.2 C 83 % 1003.8 hPa 0.0 l/m 2.2 km/h (1 Bft) W-NW 290 0 min 0 W/m 2.6 C 5.2 C 6.4 km/h (2 Bft)
17.11.2019 16:05 5.2 C 83 % 1003.5 hPa 0.0 l/m 2.7 km/h (1 Bft) W-NW 285 0 min 0 W/m 2.6 C 5.2 C 8.0 km/h (2 Bft)
17.11.2019 16:00 5.3 C 83 % 1003.5 hPa 0.0 l/m 1.2 km/h (1 Bft) W 281 0 min 0 W/m 2.7 C 5.3 C 4.8 km/h (1 Bft)
17.11.2019 15:55 5.3 C 83 % 1003.4 hPa 0.0 l/m 2.2 km/h (1 Bft) W-NW 298 0 min 0 W/m 2.7 C 5.3 C 8.0 km/h (2 Bft)
17.11.2019 15:50 5.3 C 83 % 1003.5 hPa 0.0 l/m 2.1 km/h (1 Bft) W-NW 300 0 min 0 W/m 2.7 C 5.3 C 6.4 km/h (2 Bft)
17.11.2019 15:45 5.3 C 83 % 1003.4 hPa 0.0 l/m 3.6 km/h (1 Bft) N-NW 331 0 min 0 W/m 2.7 C 5.3 C 9.7 km/h (2 Bft)
17.11.2019 15:40 5.4 C 83 % 1003.5 hPa 0.0 l/m 2.1 km/h (1 Bft) W-NW 298 0 min 0 W/m 2.7 C 5.4 C 6.4 km/h (2 Bft)
17.11.2019 15:35 5.4 C 83 % 1003.4 hPa 0.0 l/m 1.7 km/h (1 Bft) N 5 0 min 1 W/m 2.7 C 5.4 C 4.8 km/h (1 Bft)
17.11.2019 15:30 5.4 C 83 % 1003.3 hPa 0.0 l/m 1.9 km/h (1 Bft) N 5 0 min 5 W/m 2.7 C 5.4 C 4.8 km/h (1 Bft)
17.11.2019 15:25 5.4 C 82 % 1003.1 hPa 0.0 l/m 2.3 km/h (1 Bft) N 5 0 min 6 W/m 2.6 C 5.4 C 6.4 km/h (2 Bft)
17.11.2019 15:20 5.5 C 82 % 1003.1 hPa 0.0 l/m 2.0 km/h (1 Bft) N 5 0 min 9 W/m 2.7 C 5.5 C 4.8 km/h (1 Bft)
17.11.2019 15:15 5.6 C 82 % 1003.3 hPa 0.0 l/m 1.2 km/h (1 Bft) N 5 0 min 15 W/m 2.8 C 5.6 C 3.2 km/h (1 Bft)
17.11.2019 15:10 5.6 C 82 % 1003.3 hPa 0.0 l/m 0.8 km/h (0 Bft) N 5 0 min 21 W/m 2.8 C 5.6 C 3.2 km/h (1 Bft)
17.11.2019 15:05 5.6 C 82 % 1003.1 hPa 0.0 l/m 1.0 km/h (0 Bft) N 5 0 min 25 W/m 2.8 C 5.6 C 4.8 km/h (1 Bft)
17.11.2019 15:00 5.6 C 82 % 1003.2 hPa 0.0 l/m 0.3 km/h (0 Bft) N 5 0 min 26 W/m 2.8 C 5.6 C 3.2 km/h (1 Bft)
17.11.2019 14:55 5.6 C 82 % 1003.3 hPa 0.0 l/m 0.1 km/h (0 Bft) N 5 0 min 24 W/m 2.8 C 5.6 C 1.6 km/h (1 Bft)
17.11.2019 14:50 5.5 C 82 % 1003.3 hPa 0.0 l/m 1.2 km/h (1 Bft) N 5 0 min 20 W/m 2.7 C 5.5 C 4.8 km/h (1 Bft)
17.11.2019 14:45 5.5 C 82 % 1003.3 hPa 0.0 l/m 0.6 km/h (0 Bft) N 5 0 min 18 W/m 2.7 C 5.5 C 3.2 km/h (1 Bft)
17.11.2019 14:40 5.4 C 82 % 1003.2 hPa 0.0 l/m 0.6 km/h (0 Bft) N 5 0 min 21 W/m 2.6 C 5.4 C 4.8 km/h (1 Bft)
17.11.2019 14:35 5.4 C 82 % 1003.0 hPa 0.0 l/m 0.5 km/h (0 Bft) N 5 0 min 24 W/m 2.6 C 5.4 C 4.8 km/h (1 Bft)
17.11.2019 14:30 5.4 C 81 % 1003.2 hPa 0.0 l/m 0.5 km/h (0 Bft) N 5 0 min 17 W/m 2.4 C 5.4 C 3.2 km/h (1 Bft)
17.11.2019 14:25 5.4 C 81 % 1003.0 hPa 0.0 l/m 1.6 km/h (1 Bft) N 5 0 min 19 W/m 2.4 C 5.4 C 4.8 km/h (1 Bft)
17.11.2019 14:20 5.4 C 81 % 1003.0 hPa 0.0 l/m 0.2 km/h (0 Bft) N 5 0 min 38 W/m 2.4 C 5.4 C 3.2 km/h (1 Bft)
17.11.2019 14:15 5.3 C 81 % 1002.8 hPa 0.0 l/m 1.0 km/h (0 Bft) N 5 0 min 68 W/m 2.3 C 5.3 C 4.8 km/h (1 Bft)
17.11.2019 14:10 5.2 C 81 % 1002.6 hPa 0.0 l/m 2.5 km/h (1 Bft) N 5 0 min 136 W/m 2.2 C 5.2 C 6.4 km/h (2 Bft)
17.11.2019 14:05 5.2 C 81 % 1002.7 hPa 0.0 l/m 2.5 km/h (1 Bft) N 5 5 min 183 W/m 2.2 C 5.2 C 4.8 km/h (1 Bft)
17.11.2019 14:00 5.2 C 81 % 1003.0 hPa 0.0 l/m 2.1 km/h (1 Bft) N 5 0 min 153 W/m 2.2 C 5.2 C 6.4 km/h (2 Bft)
17.11.2019 13:55 5.1 C 80 % 1003.1 hPa 0.0 l/m 1.8 km/h (1 Bft) N 5 0 min 123 W/m 1.9 C 5.1 C 6.4 km/h (2 Bft)
17.11.2019 13:50 5.1 C 80 % 1003.1 hPa 0.2 l/m 1.6 km/h (1 Bft) N 9 0 min 120 W/m 1.9 C 5.1 C 4.8 km/h (1 Bft)
17.11.2019 13:45 5.0 C 80 % 1003.4 hPa 0.0 l/m 1.0 km/h (0 Bft) N 9 0 min 94 W/m 1.8 C 5.0 C 4.8 km/h (1 Bft)
17.11.2019 13:40 4.9 C 81 % 1003.4 hPa 0.2 l/m 0.9 km/h (0 Bft) N 9 0 min 86 W/m 1.9 C 4.9 C 3.2 km/h (1 Bft)
17.11.2019 13:35 4.8 C 81 % 1003.5 hPa 0.0 l/m 1.5 km/h (1 Bft) N 9 0 min 74 W/m 1.8 C 4.8 C 4.8 km/h (1 Bft)
17.11.2019 13:30 4.8 C 81 % 1003.3 hPa 0.0 l/m 1.7 km/h (1 Bft) N 9 0 min 91 W/m 1.8 C 4.8 C 4.8 km/h (1 Bft)
17.11.2019 13:25 4.8 C 81 % 1003.4 hPa 0.2 l/m 0.9 km/h (0 Bft) N 9 0 min 77 W/m 1.8 C 4.8 C 4.8 km/h (1 Bft)
17.11.2019 13:20 4.8 C 81 % 1003.6 hPa 0.2 l/m 0.4 km/h (0 Bft) N 9 0 min 42 W/m 1.8 C 4.8 C 3.2 km/h (1 Bft)
17.11.2019 13:15 4.8 C 81 % 1003.8 hPa 0.0 l/m 0.8 km/h (0 Bft) N 9 0 min 33 W/m 1.8 C 4.8 C 3.2 km/h (1 Bft)
17.11.2019 13:10 4.8 C 81 % 1004.1 hPa 0.0 l/m 0.3 km/h (0 Bft) N 9 0 min 31 W/m 1.8 C 4.8 C 1.6 km/h (1 Bft)
17.11.2019 13:05 4.8 C 81 % 1004.1 hPa 0.0 l/m 1.3 km/h (1 Bft) N 9 0 min 40 W/m 1.8 C 4.8 C 4.8 km/h (1 Bft)
17.11.2019 13:00 4.8 C 81 % 1004.1 hPa 0.0 l/m 1.6 km/h (1 Bft) N 9 0 min 38 W/m 1.8 C 4.8 C 4.8 km/h (1 Bft)
17.11.2019 12:55 4.7 C 81 % 1004.2 hPa 0.0 l/m 1.9 km/h (1 Bft) N 9 0 min 39 W/m 1.7 C 4.7 C 4.8 km/h (1 Bft)
17.11.2019 12:50 4.7 C 81 % 1004.2 hPa 0.2 l/m 2.2 km/h (1 Bft) N 9 0 min 39 W/m 1.7 C 4.7 C 4.8 km/h (1 Bft)
17.11.2019 12:45 4.8 C 81 % 1004.2 hPa 0.0 l/m 2.1 km/h (1 Bft) N 9 0 min 48 W/m 1.8 C 4.8 C 6.4 km/h (2 Bft)
17.11.2019 12:40 4.8 C 81 % 1004.2 hPa 0.0 l/m 2.0 km/h (1 Bft) N 11 0 min 35 W/m 1.8 C 4.8 C 4.8 km/h (1 Bft)
17.11.2019 12:35 4.8 C 81 % 1004.2 hPa 0.0 l/m 1.6 km/h (1 Bft) N 11 0 min 36 W/m 1.8 C 4.8 C 4.8 km/h (1 Bft)
17.11.2019 12:30 4.8 C 81 % 1004.3 hPa 0.2 l/m 3.0 km/h (1 Bft) N 11 0 min 40 W/m 1.8 C 4.8 C 6.4 km/h (2 Bft)
17.11.2019 12:25 4.9 C 81 % 1004.4 hPa 0.0 l/m 2.7 km/h (1 Bft) N 11 0 min 44 W/m 1.9 C 4.9 C 6.4 km/h (2 Bft)
17.11.2019 12:20 4.9 C 81 % 1004.4 hPa 0.0 l/m 2.5 km/h (1 Bft) N 11 0 min 47 W/m 1.9 C 4.9 C 4.8 km/h (1 Bft)
17.11.2019 12:15 5.0 C 81 % 1004.5 hPa 0.0 l/m 1.4 km/h (1 Bft) N 11 0 min 52 W/m 2.0 C 5.0 C 6.4 km/h (2 Bft)
17.11.2019 12:10 5.0 C 81 % 1004.6 hPa 0.0 l/m 2.5 km/h (1 Bft) N-NO 12 0 min 51 W/m 2.0 C 5.0 C 6.4 km/h (2 Bft)
17.11.2019 12:05 5.0 C 81 % 1004.6 hPa 0.2 l/m 0.7 km/h (0 Bft) N-NO 27 0 min 49 W/m 2.0 C 5.0 C 3.2 km/h (1 Bft)
17.11.2019 12:00 5.0 C 81 % 1004.9 hPa 0.0 l/m 0.6 km/h (0 Bft) N-NO 27 0 min 49 W/m 2.0 C 5.0 C 3.2 km/h (1 Bft)
17.11.2019 11:55 4.9 C 81 % 1004.9 hPa 0.2 l/m 0.7 km/h (0 Bft) N-NO 27 0 min 52 W/m 1.9 C 4.9 C 3.2 km/h (1 Bft)
17.11.2019 11:50 4.9 C 81 % 1004.5 hPa 0.0 l/m 1.2 km/h (1 Bft) N-NO 27 0 min 53 W/m 1.9 C 4.9 C 4.8 km/h (1 Bft)
17.11.2019 11:45 4.8 C 81 % 1004.6 hPa 0.0 l/m 0.4 km/h (0 Bft) N-NO 27 0 min 55 W/m 1.8 C 4.8 C 3.2 km/h (1 Bft)
17.11.2019 11:40 4.8 C 81 % 1004.8 hPa 0.0 l/m 0.4 km/h (0 Bft) N-NO 27 0 min 54 W/m 1.8 C 4.8 C 3.2 km/h (1 Bft)
17.11.2019 11:35 4.8 C 81 % 1004.7 hPa 0.2 l/m 1.4 km/h (1 Bft) N-NO 27 0 min 51 W/m 1.8 C 4.8 C 3.2 km/h (1 Bft)
17.11.2019 11:30 4.9 C 81 % 1004.6 hPa 0.0 l/m 0.8 km/h (0 Bft) N-NO 27 0 min 42 W/m 1.9 C 4.9 C 4.8 km/h (1 Bft)
17.11.2019 11:25 4.8 C 81 % 1004.8 hPa 0.2 l/m 0.7 km/h (0 Bft) N-NO 27 0 min 52 W/m 1.8 C 4.8 C 3.2 km/h (1 Bft)
17.11.2019 11:20 4.8 C 82 % 1004.8 hPa 0.0 l/m 0.6 km/h (0 Bft) N-NO 27 0 min 43 W/m 2.0 C 4.8 C 3.2 km/h (1 Bft)
17.11.2019 11:15 4.8 C 82 % 1004.7 hPa 0.0 l/m 1.9 km/h (1 Bft) N-NO 27 0 min 43 W/m 2.0 C 4.8 C 4.8 km/h (1 Bft)
17.11.2019 11:10 4.8 C 81 % 1005.0 hPa 0.2 l/m 0.3 km/h (0 Bft) N-NO 27 0 min 39 W/m 1.8 C 4.8 C 1.6 km/h (1 Bft)
17.11.2019 11:05 4.8 C 82 % 1005.2 hPa 0.2 l/m 0.7 km/h (0 Bft) N-NO 27 0 min 56 W/m 2.0 C 4.8 C 3.2 km/h (1 Bft)
17.11.2019 11:00 4.8 C 82 % 1005.1 hPa 0.0 l/m 1.1 km/h (1 Bft) N-NO 30 0 min 53 W/m 2.0 C 4.8 C 3.2 km/h (1 Bft)
17.11.2019 10:55 4.8 C 82 % 1005.1 hPa 0.0 l/m 0.6 km/h (0 Bft) N-NO 30 0 min 56 W/m 2.0 C 4.8 C 3.2 km/h (1 Bft)
17.11.2019 10:50 4.7 C 82 % 1005.1 hPa 0.2 l/m 0.5 km/h (0 Bft) N-NO 30 0 min 51 W/m 1.9 C 4.7 C 1.6 km/h (1 Bft)
17.11.2019 10:45 4.7 C 82 % 1005.3 hPa 0.0 l/m 0.2 km/h (0 Bft) N-NO 30 0 min 47 W/m 1.9 C 4.7 C 1.6 km/h (1 Bft)
17.11.2019 10:40 4.7 C 82 % 1005.2 hPa 0.2 l/m 0.6 km/h (0 Bft) N-NO 30 0 min 45 W/m 1.9 C 4.7 C 3.2 km/h (1 Bft)
17.11.2019 10:35 4.7 C 82 % 1005.3 hPa 0.0 l/m 1.0 km/h (0 Bft) N-NO 30 0 min 47 W/m 1.9 C 4.7 C 3.2 km/h (1 Bft)
17.11.2019 10:30 4.7 C 82 % 1005.5 hPa 0.0 l/m 0.2 km/h (0 Bft) N-NO 30 0 min 40 W/m 1.9 C 4.7 C 3.2 km/h (1 Bft)
17.11.2019 10:25 4.7 C 82 % 1005.5 hPa 0.0 l/m 0.1 km/h (0 Bft) N-NO 30 0 min 40 W/m 1.9 C 4.7 C 1.6 km/h (1 Bft)
17.11.2019 10:20 4.7 C 82 % 1005.7 hPa 0.2 l/m 1.4 km/h (1 Bft) N-NO 30 0 min 31 W/m 1.9 C 4.7 C 4.8 km/h (1 Bft)
17.11.2019 10:15 4.7 C 82 % 1005.5 hPa 0.0 l/m 0.0 km/h (0 Bft) N-NO 30 0 min 28 W/m 1.9 C 4.7 C 0.0 km/h (0 Bft)
17.11.2019 10:10 4.7 C 82 % 1005.9 hPa 0.2 l/m 0.3 km/h (0 Bft) N-NO 30 0 min 29 W/m 1.9 C 4.7 C 3.2 km/h (1 Bft)
17.11.2019 10:05 4.7 C 82 % 1005.9 hPa 0.0 l/m 0.3 km/h (0 Bft) N-NO 30 0 min 27 W/m 1.9 C 4.7 C 3.2 km/h (1 Bft)
17.11.2019 10:00 4.7 C 82 % 1005.9 hPa 0.0 l/m 0.2 km/h (0 Bft) N-NO 30 0 min 28 W/m 1.9 C 4.7 C 3.2 km/h (1 Bft)
17.11.2019 09:55 4.8 C 82 % 1005.9 hPa 0.0 l/m 1.0 km/h (0 Bft) N-NO 30 0 min 26 W/m 2.0 C 4.8 C 3.2 km/h (1 Bft)
17.11.2019 09:50 4.7 C 83 % 1006.0 hPa 0.0 l/m 1.4 km/h (1 Bft) N-NO 30 0 min 24 W/m 2.1 C 4.7 C 3.2 km/h (1 Bft)
17.11.2019 09:45 4.7 C 83 % 1006.0 hPa 0.0 l/m 2.6 km/h (1 Bft) N-NO 30 0 min 25 W/m 2.1 C 4.7 C 4.8 km/h (1 Bft)
17.11.2019 09:40 4.7 C 83 % 1005.8 hPa 0.0 l/m 1.0 km/h (0 Bft) N-NO 30 0 min 25 W/m 2.1 C 4.7 C 3.2 km/h (1 Bft)
17.11.2019 09:35 4.7 C 83 % 1005.8 hPa 0.2 l/m 1.4 km/h (1 Bft) N-NO 30 0 min 24 W/m 2.1 C 4.7 C 3.2 km/h (1 Bft)
17.11.2019 09:30 4.7 C 83 % 1005.9 hPa 0.0 l/m 1.1 km/h (1 Bft) N-NO 30 0 min 24 W/m 2.1 C 4.7 C 3.2 km/h (1 Bft)
17.11.2019 09:25 4.7 C 83 % 1005.9 hPa 0.0 l/m 1.3 km/h (1 Bft) N-NO 30 0 min 23 W/m 2.1 C 4.7 C 3.2 km/h (1 Bft)
17.11.2019 09:20 4.7 C 83 % 1006.1 hPa 0.0 l/m 1.7 km/h (1 Bft) N-NO 30 0 min 19 W/m 2.1 C 4.7 C 6.4 km/h (2 Bft)
17.11.2019 09:15 4.7 C 83 % 1006.3 hPa 0.0 l/m 1.2 km/h (1 Bft) N-NO 30 0 min 15 W/m 2.1 C 4.7 C 3.2 km/h (1 Bft)
17.11.2019 09:10 4.7 C 83 % 1006.4 hPa 0.2 l/m 0.1 km/h (0 Bft) N-NO 30 0 min 14 W/m 2.1 C 4.7 C 1.6 km/h (1 Bft)
17.11.2019 09:05 4.7 C 83 % 1006.4 hPa 0.0 l/m 0.3 km/h (0 Bft) N-NO 30 0 min 15 W/m 2.1 C 4.7 C 1.6 km/h (1 Bft)
17.11.2019 09:00 4.7 C 83 % 1006.3 hPa 0.0 l/m 1.3 km/h (1 Bft) N-NO 30 0 min 15 W/m 2.1 C 4.7 C 3.2 km/h (1 Bft)
17.11.2019 08:55 4.7 C 83 % 1006.2 hPa 0.0 l/m 1.5 km/h (1 Bft) N-NO 30 0 min 15 W/m 2.1 C 4.7 C 3.2 km/h (1 Bft)
17.11.2019 08:50 4.7 C 83 % 1006.6 hPa 0.0 l/m 1.0 km/h (0 Bft) N-NO 30 0 min 14 W/m 2.1 C 4.7 C 3.2 km/h (1 Bft)
17.11.2019 08:45 4.7 C 83 % 1006.8 hPa 0.0 l/m 0.7 km/h (0 Bft) N-NO 30 0 min 14 W/m 2.1 C 4.7 C 1.6 km/h (1 Bft)
17.11.2019 08:40 4.7 C 83 % 1006.7 hPa 0.0 l/m 1.6 km/h (1 Bft) N-NO 30 0 min 13 W/m 2.1 C 4.7 C 4.8 km/h (1 Bft)
17.11.2019 08:35 4.7 C 83 % 1006.7 hPa 0.0 l/m 2.4 km/h (1 Bft) N-NO 30 0 min 12 W/m 2.1 C 4.7 C 6.4 km/h (2 Bft)
17.11.2019 08:30 4.7 C 84 % 1006.7 hPa 0.0 l/m 1.2 km/h (1 Bft) N-NO 30 0 min 11 W/m 2.2 C 4.7 C 3.2 km/h (1 Bft)
17.11.2019 08:25 4.7 C 84 % 1006.9 hPa 0.0 l/m 1.1 km/h (1 Bft) N-NO 30 0 min 11 W/m 2.2 C 4.7 C 4.8 km/h (1 Bft)
17.11.2019 08:20 4.7 C 84 % 1006.7 hPa 0.0 l/m 2.1 km/h (1 Bft) N-NO 30 0 min 11 W/m 2.2 C 4.7 C 4.8 km/h (1 Bft)
17.11.2019 08:15 4.7 C 84 % 1006.8 hPa 0.0 l/m 1.0 km/h (0 Bft) N-NO 30 0 min 9 W/m 2.2 C 4.7 C 3.2 km/h (1 Bft)
17.11.2019 08:10 4.7 C 84 % 1006.8 hPa 0.0 l/m 1.5 km/h (1 Bft) N-NO 30 0 min 7 W/m 2.2 C 4.7 C 6.4 km/h (2 Bft)
17.11.2019 08:05 4.8 C 84 % 1006.8 hPa 0.0 l/m 3.0 km/h (1 Bft) NO 39 0 min 5 W/m 2.3 C 4.8 C 6.4 km/h (2 Bft)
17.11.2019 08:00 4.8 C 84 % 1007.0 hPa 0.0 l/m 2.2 km/h (1 Bft) NO 39 0 min 4 W/m 2.3 C 4.8 C 4.8 km/h (1 Bft)
17.11.2019 07:55 4.8 C 84 % 1007.1 hPa 0.0 l/m 3.4 km/h (1 Bft) NO 39 0 min 0 W/m 2.3 C 4.8 C 6.4 km/h (2 Bft)
17.11.2019 07:50 4.8 C 84 % 1007.1 hPa 0.2 l/m 1.7 km/h (1 Bft) NO 42 0 min 0 W/m 2.3 C 4.8 C 4.8 km/h (1 Bft)
17.11.2019 07:45 4.8 C 84 % 1007.4 hPa 0.0 l/m 1.2 km/h (1 Bft) NO 42 0 min 0 W/m 2.3 C 4.8 C 3.2 km/h (1 Bft)
17.11.2019 07:40 4.9 C 84 % 1007.7 hPa 0.0 l/m 1.9 km/h (1 Bft) NO 42 0 min 0 W/m 2.4 C 4.9 C 4.8 km/h (1 Bft)
17.11.2019 07:35 4.9 C 84 % 1007.7 hPa 0.0 l/m 2.2 km/h (1 Bft) NO 42 0 min 0 W/m 2.4 C 4.9 C 4.8 km/h (1 Bft)
17.11.2019 07:30 4.9 C 84 % 1007.8 hPa 0.0 l/m 1.2 km/h (1 Bft) NO 42 0 min 0 W/m 2.4 C 4.9 C 4.8 km/h (1 Bft)
17.11.2019 07:25 4.9 C 84 % 1008.0 hPa 0.2 l/m 1.5 km/h (1 Bft) NO 42 0 min 0 W/m 2.4 C 4.9 C 4.8 km/h (1 Bft)
17.11.2019 07:20 4.9 C 84 % 1007.9 hPa 0.0 l/m 2.0 km/h (1 Bft) NO 42 0 min 0 W/m 2.4 C 4.9 C 4.8 km/h (1 Bft)
17.11.2019 07:15 4.9 C 84 % 1008.0 hPa 0.0 l/m 1.8 km/h (1 Bft) NO 42 0 min 0 W/m 2.4 C 4.9 C 4.8 km/h (1 Bft)
17.11.2019 07:10 4.9 C 84 % 1008.2 hPa 0.0 l/m 1.2 km/h (1 Bft) NO 42 0 min 0 W/m 2.4 C 4.9 C 3.2 km/h (1 Bft)
17.11.2019 07:05 4.9 C 84 % 1008.2 hPa 0.0 l/m 0.3 km/h (0 Bft) NO 42 0 min 0 W/m 2.4 C 4.9 C 3.2 km/h (1 Bft)
17.11.2019 07:00 4.9 C 84 % 1008.4 hPa 0.0 l/m 0.4 km/h (0 Bft) NO 42 0 min 0 W/m 2.4 C 4.9 C 3.2 km/h (1 Bft)
17.11.2019 06:55 4.9 C 84 % 1008.4 hPa 0.0 l/m 0.5 km/h (0 Bft) NO 42 0 min 0 W/m 2.4 C 4.9 C 3.2 km/h (1 Bft)
17.11.2019 06:50 4.9 C 84 % 1008.5 hPa 0.0 l/m 0.5 km/h (0 Bft) NO 42 0 min 0 W/m 2.4 C 4.9 C 3.2 km/h (1 Bft)
17.11.2019 06:45 4.9 C 84 % 1008.4 hPa 0.0 l/m 1.4 km/h (1 Bft) NO 42 0 min 0 W/m 2.4 C 4.9 C 4.8 km/h (1 Bft)
17.11.2019 06:40 4.9 C 84 % 1008.4 hPa 0.0 l/m 0.3 km/h (0 Bft) NO 42 0 min 0 W/m 2.4 C 4.9 C 3.2 km/h (1 Bft)
17.11.2019 06:35 4.9 C 84 % 1008.4 hPa 0.0 l/m 0.9 km/h (0 Bft) NO 42 0 min 0 W/m 2.4 C 4.9 C 3.2 km/h (1 Bft)
17.11.2019 06:30 4.9 C 84 % 1008.2 hPa 0.0 l/m 1.2 km/h (1 Bft) NO 42 0 min 0 W/m 2.4 C 4.9 C 4.8 km/h (1 Bft)
17.11.2019 06:25 4.9 C 84 % 1008.2 hPa 0.0 l/m 0.0 km/h (0 Bft) NO 42 0 min 0 W/m 2.4 C 4.9 C 1.6 km/h (1 Bft)
17.11.2019 06:20 4.9 C 84 % 1008.4 hPa 0.0 l/m 0.0 km/h (0 Bft) NO 42 0 min 0 W/m 2.4 C 4.9 C 1.6 km/h (1 Bft)
17.11.2019 06:15 4.9 C 84 % 1008.5 hPa 0.0 l/m 0.0 km/h (0 Bft) NO 42 0 min 0 W/m 2.4 C 4.9 C 1.6 km/h (1 Bft)
17.11.2019 06:10 4.9 C 84 % 1008.6 hPa 0.0 l/m 0.0 km/h (0 Bft) NO 42 0 min 0 W/m 2.4 C 4.9 C 0.0 km/h (0 Bft)
17.11.2019 06:05 4.9 C 84 % 1008.6 hPa 0.0 l/m 0.0 km/h (0 Bft) NO 42 0 min 0 W/m 2.4 C 4.9 C 0.0 km/h (0 Bft)
17.11.2019 06:00 4.9 C 84 % 1008.6 hPa 0.0 l/m 0.0 km/h (0 Bft) NO 42 0 min 0 W/m 2.4 C 4.9 C 1.6 km/h (1 Bft)
17.11.2019 05:55 4.9 C 84 % 1008.7 hPa 0.0 l/m 1.0 km/h (0 Bft) NO 42 0 min 0 W/m 2.4 C 4.9 C 3.2 km/h (1 Bft)
17.11.2019 05:50 4.9 C 84 % 1008.8 hPa 0.0 l/m 1.4 km/h (1 Bft) NO 42 0 min 0 W/m 2.4 C 4.9 C 3.2 km/h (1 Bft)
17.11.2019 05:45 4.9 C 84 % 1008.9 hPa 0.0 l/m 2.0 km/h (1 Bft) NO 42 0 min 0 W/m 2.4 C 4.9 C 4.8 km/h (1 Bft)
17.11.2019 05:40 4.9 C 84 % 1009.0 hPa 0.0 l/m 2.4 km/h (1 Bft) NO 42 0 min 0 W/m 2.4 C 4.9 C 6.4 km/h (2 Bft)
17.11.2019 05:35 4.8 C 84 % 1009.0 hPa 0.0 l/m 3.4 km/h (1 Bft) NO 42 0 min 0 W/m 2.3 C 4.8 C 8.0 km/h (2 Bft)
17.11.2019 05:30 4.8 C 84 % 1009.1 hPa 0.0 l/m 3.3 km/h (1 Bft) NO 45 0 min 0 W/m 2.3 C 4.8 C 9.7 km/h (2 Bft)
17.11.2019 05:25 4.8 C 84 % 1008.9 hPa 0.0 l/m 4.4 km/h (1 Bft) O-NO 66 0 min 0 W/m 2.3 C 4.8 C 11.3 km/h (2 Bft)
17.11.2019 05:20 4.8 C 84 % 1009.0 hPa 0.0 l/m 3.1 km/h (1 Bft) NO 48 0 min 0 W/m 2.3 C 4.8 C 9.7 km/h (2 Bft)
17.11.2019 05:15 4.8 C 84 % 1009.1 hPa 0.0 l/m 4.9 km/h (1 Bft) O-NO 60 0 min 0 W/m 2.3 C 3.9 C 11.3 km/h (2 Bft)
17.11.2019 05:10 4.8 C 84 % 1009.3 hPa 0.0 l/m 3.2 km/h (1 Bft) NO 53 0 min 0 W/m 2.3 C 4.8 C 6.4 km/h (2 Bft)
17.11.2019 05:05 4.8 C 84 % 1009.2 hPa 0.0 l/m 5.6 km/h (2 Bft) O-NO 69 0 min 0 W/m 2.3 C 3.6 C 12.9 km/h (3 Bft)
17.11.2019 05:00 4.7 C 84 % 1009.1 hPa 0.0 l/m 4.9 km/h (1 Bft) NO 52 0 min 0 W/m 2.2 C 3.8 C 11.3 km/h (2 Bft)
17.11.2019 04:55 4.7 C 84 % 1009.0 hPa 0.0 l/m 4.7 km/h (1 Bft) NO 55 0 min 0 W/m 2.2 C 3.9 C 12.9 km/h (3 Bft)
17.11.2019 04:50 4.7 C 84 % 1009.1 hPa 0.0 l/m 4.5 km/h (1 Bft) O-NO 74 0 min 0 W/m 2.2 C 4.7 C 8.0 km/h (2 Bft)
17.11.2019 04:45 4.7 C 84 % 1009.3 hPa 0.0 l/m 4.5 km/h (1 Bft) NO 51 0 min 0 W/m 2.2 C 4.7 C 8.0 km/h (2 Bft)
17.11.2019 04:40 4.6 C 84 % 1009.5 hPa 0.0 l/m 4.1 km/h (1 Bft) NO 44 0 min 0 W/m 2.1 C 4.6 C 9.7 km/h (2 Bft)
17.11.2019 04:35 4.6 C 84 % 1009.5 hPa 0.0 l/m 4.2 km/h (1 Bft) NO 54 0 min 0 W/m 2.1 C 4.6 C 11.3 km/h (2 Bft)
17.11.2019 04:30 4.6 C 84 % 1009.6 hPa 0.0 l/m 4.8 km/h (1 Bft) O-NO 60 0 min 0 W/m 2.1 C 3.7 C 11.3 km/h (2 Bft)
17.11.2019 04:25 4.5 C 84 % 1009.7 hPa 0.0 l/m 2.5 km/h (1 Bft) O-NO 57 0 min 0 W/m 2.0 C 4.5 C 6.4 km/h (2 Bft)
17.11.2019 04:20 4.5 C 83 % 1009.4 hPa 0.0 l/m 3.5 km/h (1 Bft) NO 55 0 min 0 W/m 1.9 C 4.5 C 8.0 km/h (2 Bft)
17.11.2019 04:15 4.4 C 83 % 1009.9 hPa 0.0 l/m 3.2 km/h (1 Bft) O 82 0 min 0 W/m 1.8 C 4.4 C 9.7 km/h (2 Bft)
17.11.2019 04:10 4.4 C 83 % 1010.0 hPa 0.0 l/m 2.5 km/h (1 Bft) NO 55 0 min 0 W/m 1.8 C 4.4 C 6.4 km/h (2 Bft)
17.11.2019 04:05 4.3 C 83 % 1009.9 hPa 0.0 l/m 1.6 km/h (1 Bft) NO 55 0 min 0 W/m 1.7 C 4.3 C 6.4 km/h (2 Bft)
17.11.2019 04:00 4.2 C 82 % 1009.9 hPa 0.0 l/m 3.9 km/h (1 Bft) NO 55 0 min 0 W/m 1.4 C 4.2 C 9.7 km/h (2 Bft)
17.11.2019 03:55 4.2 C 82 % 1009.8 hPa 0.0 l/m 3.1 km/h (1 Bft) O-NO 65 0 min 0 W/m 1.4 C 4.2 C 8.0 km/h (2 Bft)
17.11.2019 03:50 4.1 C 82 % 1009.9 hPa 0.0 l/m 2.5 km/h (1 Bft) O-NO 59 0 min 0 W/m 1.3 C 4.1 C 8.0 km/h (2 Bft)
17.11.2019 03:45 4.0 C 82 % 1010.0 hPa 0.0 l/m 1.9 km/h (1 Bft) O-NO 59 0 min 0 W/m 1.2 C 4.0 C 6.4 km/h (2 Bft)
17.11.2019 03:40 3.9 C 82 % 1009.8 hPa 0.0 l/m 2.9 km/h (1 Bft) NO 52 0 min 0 W/m 1.1 C 3.9 C 6.4 km/h (2 Bft)
17.11.2019 03:35 3.8 C 82 % 1009.7 hPa 0.0 l/m 2.9 km/h (1 Bft) NO 42 0 min 0 W/m 1.0 C 3.8 C 6.4 km/h (2 Bft)
17.11.2019 03:30 3.8 C 81 % 1009.8 hPa 0.0 l/m 2.9 km/h (1 Bft) N-NO 21 0 min 0 W/m 0.8 C 3.8 C 6.4 km/h (2 Bft)
17.11.2019 03:25 3.7 C 81 % 1009.8 hPa 0.0 l/m 2.7 km/h (1 Bft) N 355 0 min 0 W/m 0.7 C 3.7 C 4.8 km/h (1 Bft)
17.11.2019 03:20 3.6 C 81 % 1009.7 hPa 0.0 l/m 3.5 km/h (1 Bft) N 355 0 min 0 W/m 0.7 C 3.6 C 6.4 km/h (2 Bft)
17.11.2019 03:15 3.4 C 82 % 1009.8 hPa 0.0 l/m 2.2 km/h (1 Bft) N-NW 348 0 min 0 W/m 0.6 C 3.4 C 6.4 km/h (2 Bft)
17.11.2019 03:10 3.4 C 81 % 1009.9 hPa 0.0 l/m 1.4 km/h (1 Bft) N-NW 347 0 min 0 W/m 0.5 C 3.4 C 3.2 km/h (1 Bft)
17.11.2019 03:05 3.3 C 81 % 1009.8 hPa 0.0 l/m 2.0 km/h (1 Bft) N-NW 347 0 min 0 W/m 0.4 C 3.3 C 3.2 km/h (1 Bft)
17.11.2019 03:00 3.3 C 81 % 1009.9 hPa 0.0 l/m 1.3 km/h (1 Bft) N-NW 347 0 min 0 W/m 0.4 C 3.3 C 3.2 km/h (1 Bft)
17.11.2019 02:55 3.2 C 81 % 1009.9 hPa 0.0 l/m 0.3 km/h (0 Bft) N-NW 347 0 min 0 W/m 0.3 C 3.2 C 3.2 km/h (1 Bft)
17.11.2019 02:50 3.1 C 81 % 1010.0 hPa 0.0 l/m 0.0 km/h (0 Bft) N-NW 347 0 min 0 W/m 0.2 C 3.1 C 0.0 km/h (0 Bft)
17.11.2019 02:45 3.1 C 81 % 1010.2 hPa 0.0 l/m 0.2 km/h (0 Bft) N-NW 347 0 min 0 W/m 0.2 C 3.1 C 1.6 km/h (1 Bft)
17.11.2019 02:40 3.0 C 82 % 1010.3 hPa 0.0 l/m 0.0 km/h (0 Bft) N-NW 347 0 min 0 W/m 0.2 C 3.0 C 0.0 km/h (0 Bft)
17.11.2019 02:35 3.0 C 81 % 1010.4 hPa 0.0 l/m 0.0 km/h (0 Bft) N-NW 347 0 min 0 W/m 0.1 C 3.0 C 0.0 km/h (0 Bft)
17.11.2019 02:30 3.0 C 81 % 1010.4 hPa 0.0 l/m 0.0 km/h (0 Bft) N-NW 347 0 min 0 W/m 0.1 C 3.0 C 0.0 km/h (0 Bft)
17.11.2019 02:25 2.9 C 81 % 1010.5 hPa 0.0 l/m 0.0 km/h (0 Bft) N-NW 347 0 min 0 W/m -0.0 C 2.9 C 0.0 km/h (0 Bft)
17.11.2019 02:20 2.8 C 81 % 1010.5 hPa 0.0 l/m 0.0 km/h (0 Bft) N-NW 347 0 min 0 W/m -0.1 C 2.8 C 0.0 km/h (0 Bft)
17.11.2019 02:15 2.8 C 81 % 1010.6 hPa 0.0 l/m 0.0 km/h (0 Bft) N-NW 347 0 min 0 W/m -0.1 C 2.8 C 0.0 km/h (0 Bft)
17.11.2019 02:10 2.8 C 81 % 1010.6 hPa 0.0 l/m 0.0 km/h (0 Bft) N-NW 347 0 min 0 W/m -0.1 C 2.8 C 0.0 km/h (0 Bft)
17.11.2019 02:05 2.7 C 81 % 1010.7 hPa 0.0 l/m 0.0 km/h (0 Bft) N-NW 347 0 min 0 W/m -0.2 C 2.7 C 0.0 km/h (0 Bft)
17.11.2019 02:00 2.7 C 82 % 1011.0 hPa 0.0 l/m 0.0 km/h (0 Bft) N-NW 347 0 min 0 W/m -0.1 C 2.7 C 0.0 km/h (0 Bft)
17.11.2019 01:55 2.7 C 82 % 1011.1 hPa 0.0 l/m 0.0 km/h (0 Bft) N-NW 347 0 min 0 W/m -0.1 C 2.7 C 0.0 km/h (0 Bft)
17.11.2019 01:50 2.6 C 82 % 1011.1 hPa 0.0 l/m 0.0 km/h (0 Bft) N-NW 347 0 min 0 W/m -0.2 C 2.6 C 0.0 km/h (0 Bft)
17.11.2019 01:45 2.6 C 82 % 1011.1 hPa 0.0 l/m 0.0 km/h (0 Bft) N-NW 347 0 min 0 W/m -0.2 C 2.6 C 0.0 km/h (0 Bft)
17.11.2019 01:40 2.6 C 82 % 1011.1 hPa 0.0 l/m 0.0 km/h (0 Bft) N-NW 347 0 min 0 W/m -0.2 C 2.6 C 0.0 km/h (0 Bft)
17.11.2019 01:35 2.6 C 82 % 1011.2 hPa 0.0 l/m 0.0 km/h (0 Bft) N-NW 347 0 min 0 W/m -0.2 C 2.6 C 0.0 km/h (0 Bft)
17.11.2019 01:30 2.5 C 82 % 1011.3 hPa 0.0 l/m 0.0 km/h (0 Bft) N-NW 347 0 min 0 W/m -0.3 C 2.5 C 0.0 km/h (0 Bft)
17.11.2019 01:25 2.5 C 82 % 1011.4 hPa 0.0 l/m 0.0 km/h (0 Bft) N-NW 347 0 min 0 W/m -0.3 C 2.5 C 1.6 km/h (1 Bft)
17.11.2019 01:20 2.5 C 82 % 1011.5 hPa 0.0 l/m 0.1 km/h (0 Bft) N-NW 347 0 min 0 W/m -0.3 C 2.5 C 1.6 km/h (1 Bft)
17.11.2019 01:15 2.4 C 82 % 1011.5 hPa 0.0 l/m 0.1 km/h (0 Bft) N-NW 347 0 min 0 W/m -0.4 C 2.4 C 1.6 km/h (1 Bft)
17.11.2019 01:10 2.4 C 82 % 1011.7 hPa 0.0 l/m 0.0 km/h (0 Bft) N-NW 347 0 min 0 W/m -0.4 C 2.4 C 0.0 km/h (0 Bft)
17.11.2019 01:05 2.3 C 82 % 1011.9 hPa 0.0 l/m 0.0 km/h (0 Bft) N-NW 347 0 min 0 W/m -0.4 C 2.3 C 0.0 km/h (0 Bft)
17.11.2019 01:00 2.4 C 82 % 1011.9 hPa 0.0 l/m 0.2 km/h (0 Bft) N-NW 347 0 min 0 W/m -0.4 C 2.4 C 1.6 km/h (1 Bft)
17.11.2019 00:55 2.4 C 82 % 1011.9 hPa 0.0 l/m 0.8 km/h (0 Bft) N-NW 347 0 min 0 W/m -0.4 C 2.4 C 3.2 km/h (1 Bft)
17.11.2019 00:50 2.4 C 82 % 1011.9 hPa 0.0 l/m 1.7 km/h (1 Bft) N-NW 347 0 min 0 W/m -0.4 C 2.4 C 4.8 km/h (1 Bft)
17.11.2019 00:45 2.4 C 82 % 1012.0 hPa 0.0 l/m 1.9 km/h (1 Bft) N-NW 347 0 min 0 W/m -0.4 C 2.4 C 4.8 km/h (1 Bft)
17.11.2019 00:40 2.4 C 82 % 1012.1 hPa 0.0 l/m 3.0 km/h (1 Bft) N-NW 347 0 min 0 W/m -0.4 C 2.4 C 4.8 km/h (1 Bft)
17.11.2019 00:35 2.3 C 82 % 1012.1 hPa 0.0 l/m 3.2 km/h (1 Bft) N-NW 347 0 min 0 W/m -0.4 C 2.3 C 4.8 km/h (1 Bft)
17.11.2019 00:30 2.3 C 82 % 1012.2 hPa 0.0 l/m 2.5 km/h (1 Bft) N-NW 347 0 min 0 W/m -0.4 C 2.3 C 4.8 km/h (1 Bft)
17.11.2019 00:25 2.2 C 82 % 1012.3 hPa 0.0 l/m 2.4 km/h (1 Bft) N-NW 347 0 min 0 W/m -0.5 C 2.2 C 4.8 km/h (1 Bft)
17.11.2019 00:20 2.1 C 82 % 1012.3 hPa 0.0 l/m 2.2 km/h (1 Bft) N-NW 347 0 min 0 W/m -0.6 C 2.1 C 4.8 km/h (1 Bft)
17.11.2019 00:15 1.9 C 82 % 1012.3 hPa 0.0 l/m 0.7 km/h (0 Bft) N-NW 347 0 min 0 W/m -0.8 C 1.9 C 3.2 km/h (1 Bft)
17.11.2019 00:10 1.9 C 82 % 1012.3 hPa 0.0 l/m 0.0 km/h (0 Bft) N-NW 347 0 min 0 W/m -0.8 C 1.9 C 0.0 km/h (0 Bft)
17.11.2019 00:05 1.8 C 82 % 1012.4 hPa 0.0 l/m 0.0 km/h (0 Bft) N-NW 347 0 min 0 W/m -0.9 C 1.8 C 0.0 km/h (0 Bft)
17.11.2019 00:00 1.7 C 82 % 1012.3 hPa 0.0 l/m 0.3 km/h (0 Bft) N-NW 347 0 min 0 W/m -1.0 C 1.7 C 3.2 km/h (1 Bft)
_ Min-Zeit 00:00 13:45 14:10 - 00:05 - - - - 00:00 17:55 00:05
Minimum _ 1.7 C 80 % 1002.6 hPa - 0.0 km/h (0 Bft) - - - - -1.0 C 1.5 C 0.0 km/h (0 Bft)
_ Max-Zeit 14:50 17:55 00:05 07:25 17:55 - - 14:05 14:05 14:55 14:55 17:55
Maximum _ 5.6 C 85 % 1012.4 hPa 0.2 l/m 11.5 km/h
W (2 Bft)
- - 5 min 183 W/m 2.8 C 5.6 C 22.5 km/h
W (4 Bft)
Durchschnitt _ 4.4 C 83 % 1006.8 hPa #4.0 l/m 1.8 km/h (1 Bft) NO - #5 min. 40 W/m 1.7 C 4.3 C 5.0 km/h (1 Bft)
sponsored by www.loveroomdeluxe.ch